sensor_id;sensor_type;location;lat;lon;timestamp;P1;durP1;ratioP1;P2;durP2;ratioP2
55172;SDS011;41061;52.822;6.860;2023-11-19T00:02:25;55.65;;;20.58;;
55172;SDS011;41061;52.822;6.860;2023-11-19T00:04:51;58.00;;;19.15;;
55172;SDS011;41061;52.822;6.860;2023-11-19T00:07:17;45.90;;;18.58;;
55172;SDS011;41061;52.822;6.860;2023-11-19T00:09:43;54.75;;;20.52;;
55172;SDS011;41061;52.822;6.860;2023-11-19T00:12:09;53.97;;;20.55;;
55172;SDS011;41061;52.822;6.860;2023-11-19T00:14:35;52.30;;;20.63;;
55172;SDS011;41061;52.822;6.860;2023-11-19T00:17:01;58.03;;;21.48;;
55172;SDS011;41061;52.822;6.860;2023-11-19T00:19:29;64.32;;;21.10;;
55172;SDS011;41061;52.822;6.860;2023-11-19T00:21:55;55.17;;;21.67;;
55172;SDS011;41061;52.822;6.860;2023-11-19T00:24:21;60.45;;;22.58;;
55172;SDS011;41061;52.822;6.860;2023-11-19T00:26:47;68.95;;;23.25;;
55172;SDS011;41061;52.822;6.860;2023-11-19T00:29:14;55.88;;;21.38;;
55172;SDS011;41061;52.822;6.860;2023-11-19T00:31:40;68.18;;;22.67;;
55172;SDS011;41061;52.822;6.860;2023-11-19T00:34:06;65.15;;;22.27;;
55172;SDS011;41061;52.822;6.860;2023-11-19T00:36:32;67.07;;;21.73;;
55172;SDS011;41061;52.822;6.860;2023-11-19T00:38:58;63.72;;;24.05;;
55172;SDS011;41061;52.822;6.860;2023-11-19T00:41:24;67.43;;;24.20;;
55172;SDS011;41061;52.822;6.860;2023-11-19T00:43:50;67.30;;;24.55;;
55172;SDS011;41061;52.822;6.860;2023-11-19T00:46:17;72.93;;;24.40;;
55172;SDS011;41061;52.822;6.860;2023-11-19T00:48:43;73.97;;;25.35;;
55172;SDS011;41061;52.822;6.860;2023-11-19T00:51:11;72.97;;;25.80;;
55172;SDS011;41061;52.822;6.860;2023-11-19T00:53:37;85.25;;;27.23;;
55172;SDS011;41061;52.822;6.860;2023-11-19T00:56:04;76.93;;;27.20;;
55172;SDS011;41061;52.822;6.860;2023-11-19T00:58:30;80.28;;;27.83;;
55172;SDS011;41061;52.822;6.860;2023-11-19T01:00:57;79.95;;;27.85;;
55172;SDS011;41061;52.822;6.860;2023-11-19T01:03:23;82.90;;;28.67;;
55172;SDS011;41061;52.822;6.860;2023-11-19T01:05:49;78.63;;;28.35;;
55172;SDS011;41061;52.822;6.860;2023-11-19T01:08:17;75.45;;;27.10;;
55172;SDS011;41061;52.822;6.860;2023-11-19T01:10:44;78.32;;;27.70;;
55172;SDS011;41061;52.822;6.860;2023-11-19T01:13:10;78.03;;;27.55;;
55172;SDS011;41061;52.822;6.860;2023-11-19T01:15:36;82.40;;;27.70;;
55172;SDS011;41061;52.822;6.860;2023-11-19T01:18:02;87.72;;;27.60;;
55172;SDS011;41061;52.822;6.860;2023-11-19T01:20:30;86.22;;;28.38;;
55172;SDS011;41061;52.822;6.860;2023-11-19T01:22:56;94.50;;;29.08;;
55172;SDS011;41061;52.822;6.860;2023-11-19T01:25:22;84.10;;;28.30;;
55172;SDS011;41061;52.822;6.860;2023-11-19T01:27:48;77.90;;;27.40;;
55172;SDS011;41061;52.822;6.860;2023-11-19T01:30:15;83.05;;;27.23;;
55172;SDS011;41061;52.822;6.860;2023-11-19T01:32:41;89.00;;;26.95;;
55172;SDS011;41061;52.822;6.860;2023-11-19T01:35:07;78.45;;;26.38;;
55172;SDS011;41061;52.822;6.860;2023-11-19T01:37:33;76.78;;;26.90;;
55172;SDS011;41061;52.822;6.860;2023-11-19T01:40:00;79.30;;;25.80;;
55172;SDS011;41061;52.822;6.860;2023-11-19T01:42:29;76.43;;;26.38;;
55172;SDS011;41061;52.822;6.860;2023-11-19T01:44:58;75.75;;;27.48;;
55172;SDS011;41061;52.822;6.860;2023-11-19T01:47:25;82.85;;;27.38;;
55172;SDS011;41061;52.822;6.860;2023-11-19T01:49:51;83.45;;;26.98;;
55172;SDS011;41061;52.822;6.860;2023-11-19T01:52:18;83.43;;;27.33;;
55172;SDS011;41061;52.822;6.860;2023-11-19T01:54:45;78.47;;;26.85;;
55172;SDS011;41061;52.822;6.860;2023-11-19T01:57:12;76.82;;;25.85;;
55172;SDS011;41061;52.822;6.860;2023-11-19T01:59:38;65.30;;;24.40;;
55172;SDS011;41061;52.822;6.860;2023-11-19T02:02:05;78.25;;;25.38;;
55172;SDS011;41061;52.822;6.860;2023-11-19T02:04:31;68.03;;;25.48;;
55172;SDS011;41061;52.822;6.860;2023-11-19T02:06:59;62.28;;;24.10;;
55172;SDS011;41061;52.822;6.860;2023-11-19T02:09:25;73.70;;;24.63;;
55172;SDS011;41061;52.822;6.860;2023-11-19T02:11:52;68.45;;;24.65;;
55172;SDS011;41061;52.822;6.860;2023-11-19T02:14:19;68.05;;;21.88;;
55172;SDS011;41061;52.822;6.860;2023-11-19T02:16:49;68.40;;;23.00;;
55172;SDS011;41061;52.822;6.860;2023-11-19T02:19:15;71.50;;;22.15;;
55172;SDS011;41061;52.822;6.860;2023-11-19T02:21:41;62.15;;;21.83;;
55172;SDS011;41061;52.822;6.860;2023-11-19T02:24:08;64.75;;;20.05;;
55172;SDS011;41061;52.822;6.860;2023-11-19T02:26:47;57.85;;;16.92;;
55172;SDS011;41061;52.822;6.860;2023-11-19T02:29:17;58.08;;;17.88;;
55172;SDS011;41061;52.822;6.860;2023-11-19T02:31:43;52.13;;;16.30;;
55172;SDS011;41061;52.822;6.860;2023-11-19T02:34:10;57.25;;;15.07;;
55172;SDS011;41061;52.822;6.860;2023-11-19T02:36:37;51.33;;;12.70;;
55172;SDS011;41061;52.822;6.860;2023-11-19T02:39:06;44.00;;;10.65;;
55172;SDS011;41061;52.822;6.860;2023-11-19T02:41:36;45.05;;;11.75;;
55172;SDS011;41061;52.822;6.860;2023-11-19T02:44:04;46.28;;;9.80;;
55172;SDS011;41061;52.822;6.860;2023-11-19T02:46:30;41.53;;;9.15;;
55172;SDS011;41061;52.822;6.860;2023-11-19T02:48:57;44.10;;;9.07;;
55172;SDS011;41061;52.822;6.860;2023-11-19T02:51:23;44.10;;;8.27;;
55172;SDS011;41061;52.822;6.860;2023-11-19T02:53:49;34.85;;;6.53;;
55172;SDS011;41061;52.822;6.860;2023-11-19T02:56:15;43.95;;;6.65;;
55172;SDS011;41061;52.822;6.860;2023-11-19T02:58:50;43.88;;;6.00;;
55172;SDS011;41061;52.822;6.860;2023-11-19T03:01:21;35.88;;;5.82;;
55172;SDS011;41061;52.822;6.860;2023-11-19T03:03:59;37.58;;;6.28;;
55172;SDS011;41061;52.822;6.860;2023-11-19T03:06:26;36.20;;;5.82;;
55172;SDS011;41061;52.822;6.860;2023-11-19T03:08:52;34.63;;;5.35;;
55172;SDS011;41061;52.822;6.860;2023-11-19T03:11:18;37.10;;;4.90;;
55172;SDS011;41061;52.822;6.860;2023-11-19T03:13:43;40.63;;;5.93;;
55172;SDS011;41061;52.822;6.860;2023-11-19T03:16:09;27.52;;;5.53;;
55172;SDS011;41061;52.822;6.860;2023-11-19T03:18:36;41.65;;;4.95;;
55172;SDS011;41061;52.822;6.860;2023-11-19T03:21:04;31.20;;;5.43;;
55172;SDS011;41061;52.822;6.860;2023-11-19T03:23:31;41.40;;;5.18;;
55172;SDS011;41061;52.822;6.860;2023-11-19T03:25:56;31.63;;;5.40;;
55172;SDS011;41061;52.822;6.860;2023-11-19T03:28:22;30.05;;;5.00;;
55172;SDS011;41061;52.822;6.860;2023-11-19T03:30:48;38.45;;;5.43;;
55172;SDS011;41061;52.822;6.860;2023-11-19T03:33:13;43.63;;;5.07;;
55172;SDS011;41061;52.822;6.860;2023-11-19T03:35:39;41.13;;;4.70;;
55172;SDS011;41061;52.822;6.860;2023-11-19T03:38:06;33.08;;;4.22;;
55172;SDS011;41061;52.822;6.860;2023-11-19T03:40:32;37.97;;;5.30;;
55172;SDS011;41061;52.822;6.860;2023-11-19T03:42:57;37.97;;;5.47;;
55172;SDS011;41061;52.822;6.860;2023-11-19T03:45:24;42.80;;;6.00;;
55172;SDS011;41061;52.822;6.860;2023-11-19T03:47:50;35.35;;;4.55;;
55172;SDS011;41061;52.822;6.860;2023-11-19T03:50:16;29.13;;;4.97;;
55172;SDS011;41061;52.822;6.860;2023-11-19T03:52:43;32.53;;;4.88;;
55172;SDS011;41061;52.822;6.860;2023-11-19T03:55:08;30.27;;;4.90;;
55172;SDS011;41061;52.822;6.860;2023-11-19T03:57:34;36.28;;;6.50;;
55172;SDS011;41061;52.822;6.860;2023-11-19T04:00:01;33.58;;;5.18;;
55172;SDS011;41061;52.822;6.860;2023-11-19T04:02:33;37.03;;;5.47;;
55172;SDS011;41061;52.822;6.860;2023-11-19T04:04:59;37.40;;;5.68;;
55172;SDS011;41061;52.822;6.860;2023-11-19T04:07:25;42.03;;;6.72;;
55172;SDS011;41061;52.822;6.860;2023-11-19T04:09:50;33.95;;;5.28;;
55172;SDS011;41061;52.822;6.860;2023-11-19T04:12:16;31.67;;;4.85;;
55172;SDS011;41061;52.822;6.860;2023-11-19T04:14:42;34.67;;;5.82;;
55172;SDS011;41061;52.822;6.860;2023-11-19T04:17:09;33.55;;;5.65;;
55172;SDS011;41061;52.822;6.860;2023-11-19T04:19:35;33.70;;;5.55;;
55172;SDS011;41061;52.822;6.860;2023-11-19T04:22:01;45.78;;;6.72;;
55172;SDS011;41061;52.822;6.860;2023-11-19T04:24:27;40.63;;;6.43;;
55172;SDS011;41061;52.822;6.860;2023-11-19T04:26:53;38.17;;;6.15;;
55172;SDS011;41061;52.822;6.860;2023-11-19T04:29:18;50.88;;;6.45;;
55172;SDS011;41061;52.822;6.860;2023-11-19T04:31:44;37.33;;;5.80;;
55172;SDS011;41061;52.822;6.860;2023-11-19T04:34:11;23.40;;;4.85;;
55172;SDS011;41061;52.822;6.860;2023-11-19T04:36:37;41.70;;;5.70;;
55172;SDS011;41061;52.822;6.860;2023-11-19T04:39:03;34.22;;;5.47;;
55172;SDS011;41061;52.822;6.860;2023-11-19T04:41:50;46.05;;;6.15;;
55172;SDS011;41061;52.822;6.860;2023-11-19T04:44:19;39.38;;;6.68;;
55172;SDS011;41061;52.822;6.860;2023-11-19T04:46:45;46.42;;;6.72;;
55172;SDS011;41061;52.822;6.860;2023-11-19T04:49:12;37.45;;;6.10;;
55172;SDS011;41061;52.822;6.860;2023-11-19T04:51:44;35.42;;;5.60;;
55172;SDS011;41061;52.822;6.860;2023-11-19T04:54:12;35.42;;;5.78;;
55172;SDS011;41061;52.822;6.860;2023-11-19T04:56:38;40.20;;;6.68;;
55172;SDS011;41061;52.822;6.860;2023-11-19T04:59:04;32.03;;;4.60;;
55172;SDS011;41061;52.822;6.860;2023-11-19T05:01:34;46.33;;;6.80;;
55172;SDS011;41061;52.822;6.860;2023-11-19T05:04:01;41.30;;;5.35;;
55172;SDS011;41061;52.822;6.860;2023-11-19T05:06:27;52.75;;;7.55;;
55172;SDS011;41061;52.822;6.860;2023-11-19T05:08:54;42.58;;;6.68;;
55172;SDS011;41061;52.822;6.860;2023-11-19T05:11:21;42.20;;;6.80;;
55172;SDS011;41061;52.822;6.860;2023-11-19T05:13:47;42.15;;;5.35;;
55172;SDS011;41061;52.822;6.860;2023-11-19T05:16:12;33.03;;;5.55;;
55172;SDS011;41061;52.822;6.860;2023-11-19T05:18:41;38.35;;;6.47;;
55172;SDS011;41061;52.822;6.860;2023-11-19T05:21:07;41.45;;;6.05;;
55172;SDS011;41061;52.822;6.860;2023-11-19T05:23:33;47.58;;;6.35;;
55172;SDS011;41061;52.822;6.860;2023-11-19T05:25:59;34.72;;;5.60;;
55172;SDS011;41061;52.822;6.860;2023-11-19T05:28:28;50.80;;;6.05;;
55172;SDS011;41061;52.822;6.860;2023-11-19T05:30:54;40.65;;;5.97;;
55172;SDS011;41061;52.822;6.860;2023-11-19T05:33:20;44.33;;;6.50;;
55172;SDS011;41061;52.822;6.860;2023-11-19T05:35:46;38.08;;;6.60;;
55172;SDS011;41061;52.822;6.860;2023-11-19T05:38:12;39.80;;;6.65;;
55172;SDS011;41061;52.822;6.860;2023-11-19T05:40:38;52.53;;;8.38;;
55172;SDS011;41061;52.822;6.860;2023-11-19T05:43:04;34.25;;;6.22;;
55172;SDS011;41061;52.822;6.860;2023-11-19T05:45:31;44.53;;;6.70;;
55172;SDS011;41061;52.822;6.860;2023-11-19T05:47:57;40.78;;;6.25;;
55172;SDS011;41061;52.822;6.860;2023-11-19T05:50:24;42.38;;;6.70;;
55172;SDS011;41061;52.822;6.860;2023-11-19T05:52:50;40.03;;;6.88;;
55172;SDS011;41061;52.822;6.860;2023-11-19T05:55:18;44.22;;;7.53;;
55172;SDS011;41061;52.822;6.860;2023-11-19T05:57:44;36.20;;;5.45;;
55172;SDS011;41061;52.822;6.860;2023-11-19T06:00:10;47.30;;;6.20;;
55172;SDS011;41061;52.822;6.860;2023-11-19T06:02:38;35.90;;;5.97;;
55172;SDS011;41061;52.822;6.860;2023-11-19T06:05:04;39.97;;;6.43;;
55172;SDS011;41061;52.822;6.860;2023-11-19T06:07:34;51.63;;;7.55;;
55172;SDS011;41061;52.822;6.860;2023-11-19T06:10:01;37.17;;;6.65;;
55172;SDS011;41061;52.822;6.860;2023-11-19T06:12:28;38.42;;;6.85;;
55172;SDS011;41061;52.822;6.860;2023-11-19T06:14:54;47.70;;;7.20;;
55172;SDS011;41061;52.822;6.860;2023-11-19T06:17:21;43.22;;;6.90;;
55172;SDS011;41061;52.822;6.860;2023-11-19T06:19:47;36.35;;;6.65;;
55172;SDS011;41061;52.822;6.860;2023-11-19T06:22:13;44.38;;;6.57;;
55172;SDS011;41061;52.822;6.860;2023-11-19T06:24:39;43.33;;;6.50;;
55172;SDS011;41061;52.822;6.860;2023-11-19T06:27:05;46.00;;;6.80;;
55172;SDS011;41061;52.822;6.860;2023-11-19T06:29:32;42.88;;;6.70;;
55172;SDS011;41061;52.822;6.860;2023-11-19T06:31:58;42.35;;;7.22;;
55172;SDS011;41061;52.822;6.860;2023-11-19T06:34:24;45.42;;;7.25;;
55172;SDS011;41061;52.822;6.860;2023-11-19T06:36:50;39.72;;;6.00;;
55172;SDS011;41061;52.822;6.860;2023-11-19T06:39:17;43.15;;;6.07;;
55172;SDS011;41061;52.822;6.860;2023-11-19T06:41:48;37.40;;;5.65;;
55172;SDS011;41061;52.822;6.860;2023-11-19T06:44:14;40.50;;;5.35;;
55172;SDS011;41061;52.822;6.860;2023-11-19T06:46:40;42.15;;;5.88;;
55172;SDS011;41061;52.822;6.860;2023-11-19T06:49:06;41.85;;;7.30;;
55172;SDS011;41061;52.822;6.860;2023-11-19T06:51:33;41.67;;;6.38;;
55172;SDS011;41061;52.822;6.860;2023-11-19T06:53:59;38.03;;;6.88;;
55172;SDS011;41061;52.822;6.860;2023-11-19T06:56:26;56.63;;;11.10;;
55172;SDS011;41061;52.822;6.860;2023-11-19T06:58:52;46.58;;;6.60;;
55172;SDS011;41061;52.822;6.860;2023-11-19T07:01:18;46.25;;;6.63;;
55172;SDS011;41061;52.822;6.860;2023-11-19T07:03:47;44.72;;;6.68;;
55172;SDS011;41061;52.822;6.860;2023-11-19T07:06:14;36.42;;;5.88;;
55172;SDS011;41061;52.822;6.860;2023-11-19T07:08:43;48.58;;;6.78;;
55172;SDS011;41061;52.822;6.860;2023-11-19T07:11:12;43.83;;;7.53;;
55172;SDS011;41061;52.822;6.860;2023-11-19T07:13:40;46.10;;;5.80;;
55172;SDS011;41061;52.822;6.860;2023-11-19T07:16:07;49.00;;;7.13;;
55172;SDS011;41061;52.822;6.860;2023-11-19T07:18:35;36.38;;;6.20;;
55172;SDS011;41061;52.822;6.860;2023-11-19T07:21:01;44.88;;;7.28;;
55172;SDS011;41061;52.822;6.860;2023-11-19T07:23:28;44.22;;;6.65;;
55172;SDS011;41061;52.822;6.860;2023-11-19T07:25:54;46.33;;;6.38;;
55172;SDS011;41061;52.822;6.860;2023-11-19T07:28:20;45.75;;;6.68;;
55172;SDS011;41061;52.822;6.860;2023-11-19T07:30:46;49.22;;;7.45;;
55172;SDS011;41061;52.822;6.860;2023-11-19T07:33:12;41.25;;;5.75;;
55172;SDS011;41061;52.822;6.860;2023-11-19T07:35:39;44.40;;;6.60;;
55172;SDS011;41061;52.822;6.860;2023-11-19T07:38:07;47.08;;;6.65;;
55172;SDS011;41061;52.822;6.860;2023-11-19T07:40:33;40.10;;;5.88;;
55172;SDS011;41061;52.822;6.860;2023-11-19T07:42:59;44.28;;;8.75;;
55172;SDS011;41061;52.822;6.860;2023-11-19T07:45:25;44.97;;;6.93;;
55172;SDS011;41061;52.822;6.860;2023-11-19T07:47:52;43.58;;;5.80;;
55172;SDS011;41061;52.822;6.860;2023-11-19T07:50:18;41.60;;;6.03;;
55172;SDS011;41061;52.822;6.860;2023-11-19T07:52:45;42.22;;;6.53;;
55172;SDS011;41061;52.822;6.860;2023-11-19T07:55:10;40.47;;;5.90;;
55172;SDS011;41061;52.822;6.860;2023-11-19T07:57:37;44.50;;;6.70;;
55172;SDS011;41061;52.822;6.860;2023-11-19T08:00:03;39.13;;;8.60;;
55172;SDS011;41061;52.822;6.860;2023-11-19T08:02:29;38.97;;;6.13;;
55172;SDS011;41061;52.822;6.860;2023-11-19T08:04:55;31.27;;;5.10;;
55172;SDS011;41061;52.822;6.860;2023-11-19T08:07:21;43.17;;;6.60;;
55172;SDS011;41061;52.822;6.860;2023-11-19T08:09:49;39.40;;;6.50;;
55172;SDS011;41061;52.822;6.860;2023-11-19T08:12:15;42.25;;;6.78;;
55172;SDS011;41061;52.822;6.860;2023-11-19T08:14:42;44.75;;;6.35;;
55172;SDS011;41061;52.822;6.860;2023-11-19T08:17:09;43.97;;;6.05;;
55172;SDS011;41061;52.822;6.860;2023-11-19T08:19:35;49.78;;;6.78;;
55172;SDS011;41061;52.822;6.860;2023-11-19T08:22:00;46.53;;;7.40;;
55172;SDS011;41061;52.822;6.860;2023-11-19T08:24:27;37.50;;;6.22;;
55172;SDS011;41061;52.822;6.860;2023-11-19T08:26:53;41.05;;;6.75;;
55172;SDS011;41061;52.822;6.860;2023-11-19T08:29:19;43.22;;;6.10;;
55172;SDS011;41061;52.822;6.860;2023-11-19T08:31:44;43.63;;;6.93;;
55172;SDS011;41061;52.822;6.860;2023-11-19T08:34:11;49.13;;;9.35;;
55172;SDS011;41061;52.822;6.860;2023-11-19T08:36:36;44.58;;;7.10;;
55172;SDS011;41061;52.822;6.860;2023-11-19T08:39:02;43.88;;;7.32;;
55172;SDS011;41061;52.822;6.860;2023-11-19T08:41:28;49.28;;;7.78;;
55172;SDS011;41061;52.822;6.860;2023-11-19T08:43:55;47.45;;;7.95;;
55172;SDS011;41061;52.822;6.860;2023-11-19T08:46:21;42.40;;;6.78;;
55172;SDS011;41061;52.822;6.860;2023-11-19T08:48:46;42.00;;;7.40;;
55172;SDS011;41061;52.822;6.860;2023-11-19T08:51:12;44.45;;;7.30;;
55172;SDS011;41061;52.822;6.860;2023-11-19T08:53:38;40.55;;;6.20;;
55172;SDS011;41061;52.822;6.860;2023-11-19T08:56:03;49.60;;;7.10;;
55172;SDS011;41061;52.822;6.860;2023-11-19T08:58:30;54.08;;;9.85;;
55172;SDS011;41061;52.822;6.860;2023-11-19T09:00:56;62.05;;;13.23;;
55172;SDS011;41061;52.822;6.860;2023-11-19T09:03:22;55.13;;;8.30;;
55172;SDS011;41061;52.822;6.860;2023-11-19T09:05:48;52.25;;;7.80;;
55172;SDS011;41061;52.822;6.860;2023-11-19T09:08:13;51.53;;;9.25;;
55172;SDS011;41061;52.822;6.860;2023-11-19T09:10:39;56.38;;;12.45;;
55172;SDS011;41061;52.822;6.860;2023-11-19T09:13:05;45.75;;;12.70;;
55172;SDS011;41061;52.822;6.860;2023-11-19T09:15:30;49.72;;;8.05;;
55172;SDS011;41061;52.822;6.860;2023-11-19T09:17:56;35.03;;;5.75;;
55172;SDS011;41061;52.822;6.860;2023-11-19T09:20:22;38.03;;;5.85;;
55172;SDS011;41061;52.822;6.860;2023-11-19T09:22:47;43.55;;;7.22;;
55172;SDS011;41061;52.822;6.860;2023-11-19T09:25:13;41.92;;;7.00;;
55172;SDS011;41061;52.822;6.860;2023-11-19T09:27:42;36.67;;;6.57;;
55172;SDS011;41061;52.822;6.860;2023-11-19T09:30:08;46.30;;;6.13;;
55172;SDS011;41061;52.822;6.860;2023-11-19T09:32:34;47.95;;;7.38;;
55172;SDS011;41061;52.822;6.860;2023-11-19T09:35:00;39.53;;;5.85;;
55172;SDS011;41061;52.822;6.860;2023-11-19T09:37:28;45.35;;;6.90;;
55172;SDS011;41061;52.822;6.860;2023-11-19T09:39:53;49.00;;;6.82;;
55172;SDS011;41061;52.822;6.860;2023-11-19T09:42:19;38.88;;;5.93;;
55172;SDS011;41061;52.822;6.860;2023-11-19T09:44:45;50.28;;;7.45;;
55172;SDS011;41061;52.822;6.860;2023-11-19T09:47:13;49.67;;;7.35;;
55172;SDS011;41061;52.822;6.860;2023-11-19T09:49:39;42.60;;;6.38;;
55172;SDS011;41061;52.822;6.860;2023-11-19T09:52:05;53.03;;;8.30;;
55172;SDS011;41061;52.822;6.860;2023-11-19T09:54:31;51.08;;;7.35;;
55172;SDS011;41061;52.822;6.860;2023-11-19T09:56:57;45.53;;;6.25;;
55172;SDS011;41061;52.822;6.860;2023-11-19T09:59:29;46.60;;;6.18;;
55172;SDS011;41061;52.822;6.860;2023-11-19T10:01:56;43.25;;;7.22;;
55172;SDS011;41061;52.822;6.860;2023-11-19T10:04:22;40.40;;;5.85;;
55172;SDS011;41061;52.822;6.860;2023-11-19T10:06:49;39.80;;;6.20;;
55172;SDS011;41061;52.822;6.860;2023-11-19T10:09:16;43.33;;;6.03;;
55172;SDS011;41061;52.822;6.860;2023-11-19T10:11:42;42.40;;;6.05;;
55172;SDS011;41061;52.822;6.860;2023-11-19T10:14:08;43.00;;;6.00;;
55172;SDS011;41061;52.822;6.860;2023-11-19T10:16:35;47.25;;;6.80;;
55172;SDS011;41061;52.822;6.860;2023-11-19T10:19:01;45.80;;;6.43;;
55172;SDS011;41061;52.822;6.860;2023-11-19T10:21:26;53.83;;;7.57;;
55172;SDS011;41061;52.822;6.860;2023-11-19T10:23:56;49.35;;;7.10;;
55172;SDS011;41061;52.822;6.860;2023-11-19T10:26:25;49.67;;;6.07;;
55172;SDS011;41061;52.822;6.860;2023-11-19T10:28:52;41.88;;;6.55;;
55172;SDS011;41061;52.822;6.860;2023-11-19T10:31:19;47.25;;;7.93;;
55172;SDS011;41061;52.822;6.860;2023-11-19T10:33:50;39.72;;;7.38;;
55172;SDS011;41061;52.822;6.860;2023-11-19T10:36:16;46.55;;;7.35;;
55172;SDS011;41061;52.822;6.860;2023-11-19T10:38:51;41.15;;;5.82;;
55172;SDS011;41061;52.822;6.860;2023-11-19T10:41:30;50.33;;;7.10;;
55172;SDS011;41061;52.822;6.860;2023-11-19T10:43:57;41.70;;;5.68;;
55172;SDS011;41061;52.822;6.860;2023-11-19T10:46:23;40.75;;;6.22;;
55172;SDS011;41061;52.822;6.860;2023-11-19T10:49:08;37.03;;;5.57;;
55172;SDS011;41061;52.822;6.860;2023-11-19T10:51:34;49.15;;;7.70;;
55172;SDS011;41061;52.822;6.860;2023-11-19T10:54:03;38.70;;;5.63;;
55172;SDS011;41061;52.822;6.860;2023-11-19T10:56:34;41.92;;;6.20;;
55172;SDS011;41061;52.822;6.860;2023-11-19T10:59:00;42.65;;;6.97;;
55172;SDS011;41061;52.822;6.860;2023-11-19T11:01:32;44.20;;;6.15;;
55172;SDS011;41061;52.822;6.860;2023-11-19T11:04:13;43.08;;;5.57;;
55172;SDS011;41061;52.822;6.860;2023-11-19T11:06:42;48.20;;;7.55;;
55172;SDS011;41061;52.822;6.860;2023-11-19T11:09:08;41.28;;;6.63;;
55172;SDS011;41061;52.822;6.860;2023-11-19T11:11:38;52.67;;;11.73;;
55172;SDS011;41061;52.822;6.860;2023-11-19T11:14:12;55.70;;;18.02;;
55172;SDS011;41061;52.822;6.860;2023-11-19T11:16:44;71.53;;;24.48;;
55172;SDS011;41061;52.822;6.860;2023-11-19T11:19:13;57.75;;;15.43;;
55172;SDS011;41061;52.822;6.860;2023-11-19T11:21:40;60.83;;;13.00;;
55172;SDS011;41061;52.822;6.860;2023-11-19T11:24:16;51.38;;;8.10;;
55172;SDS011;41061;52.822;6.860;2023-11-19T11:35:36;44.08;;;6.88;;
55172;SDS011;41061;52.822;6.860;2023-11-19T11:38:15;37.40;;;6.65;;
55172;SDS011;41061;52.822;6.860;2023-11-19T11:40:43;33.85;;;5.57;;
55172;SDS011;41061;52.822;6.860;2023-11-19T11:43:47;29.30;;;5.10;;
55172;SDS011;41061;52.822;6.860;2023-11-19T11:48:57;41.58;;;5.65;;
55172;SDS011;41061;52.822;6.860;2023-11-19T11:59:47;36.22;;;6.43;;
55172;SDS011;41061;52.822;6.860;2023-11-19T12:02:14;44.25;;;7.07;;
55172;SDS011;41061;52.822;6.860;2023-11-19T12:04:42;35.08;;;5.53;;
55172;SDS011;41061;52.822;6.860;2023-11-19T12:07:09;54.78;;;6.68;;
55172;SDS011;41061;52.822;6.860;2023-11-19T12:09:51;58.92;;;7.80;;
55172;SDS011;41061;52.822;6.860;2023-11-19T12:12:32;36.22;;;6.57;;
55172;SDS011;41061;52.822;6.860;2023-11-19T12:20:14;41.97;;;6.38;;
55172;SDS011;41061;52.822;6.860;2023-11-19T12:22:42;43.00;;;6.10;;
55172;SDS011;41061;52.822;6.860;2023-11-19T12:25:09;36.03;;;5.22;;
55172;SDS011;41061;52.822;6.860;2023-11-19T12:27:37;39.17;;;5.72;;
55172;SDS011;41061;52.822;6.860;2023-11-19T12:30:05;29.13;;;4.63;;
55172;SDS011;41061;52.822;6.860;2023-11-19T12:32:42;33.60;;;5.60;;
55172;SDS011;41061;52.822;6.860;2023-11-19T12:35:10;46.28;;;6.60;;
55172;SDS011;41061;52.822;6.860;2023-11-19T12:37:43;40.30;;;5.30;;
55172;SDS011;41061;52.822;6.860;2023-11-19T12:40:15;39.03;;;5.90;;
55172;SDS011;41061;52.822;6.860;2023-11-19T12:42:43;40.85;;;6.10;;
55172;SDS011;41061;52.822;6.860;2023-11-19T12:45:09;38.65;;;5.70;;
55172;SDS011;41061;52.822;6.860;2023-11-19T12:47:36;46.75;;;6.30;;
55172;SDS011;41061;52.822;6.860;2023-11-19T12:50:02;46.25;;;9.00;;
55172;SDS011;41061;52.822;6.860;2023-11-19T12:52:29;42.60;;;9.90;;
55172;SDS011;41061;52.822;6.860;2023-11-19T12:54:55;43.20;;;6.72;;
55172;SDS011;41061;52.822;6.860;2023-11-19T12:57:35;44.35;;;6.65;;
55172;SDS011;41061;52.822;6.860;2023-11-19T13:00:08;46.70;;;6.85;;
55172;SDS011;41061;52.822;6.860;2023-11-19T13:02:48;41.28;;;6.72;;
55172;SDS011;41061;52.822;6.860;2023-11-19T13:05:35;44.22;;;6.38;;
55172;SDS011;41061;52.822;6.860;2023-11-19T13:08:03;49.70;;;6.65;;
55172;SDS011;41061;52.822;6.860;2023-11-19T13:10:31;42.63;;;5.15;;
55172;SDS011;41061;52.822;6.860;2023-11-19T13:15:27;37.63;;;5.15;;
55172;SDS011;41061;52.822;6.860;2023-11-19T13:17:52;38.53;;;6.18;;
55172;SDS011;41061;52.822;6.860;2023-11-19T13:20:18;41.58;;;5.60;;
55172;SDS011;41061;52.822;6.860;2023-11-19T13:23:00;31.80;;;5.32;;
55172;SDS011;41061;52.822;6.860;2023-11-19T13:25:28;24.50;;;4.72;;
55172;SDS011;41061;52.822;6.860;2023-11-19T13:27:54;35.83;;;6.28;;
55172;SDS011;41061;52.822;6.860;2023-11-19T13:30:21;31.15;;;5.20;;
55172;SDS011;41061;52.822;6.860;2023-11-19T13:32:47;46.75;;;5.90;;
55172;SDS011;41061;52.822;6.860;2023-11-19T13:35:13;44.22;;;6.07;;
55172;SDS011;41061;52.822;6.860;2023-11-19T13:37:40;48.45;;;6.55;;
55172;SDS011;41061;52.822;6.860;2023-11-19T13:40:08;48.10;;;6.28;;
55172;SDS011;41061;52.822;6.860;2023-11-19T13:42:36;42.53;;;6.82;;
55172;SDS011;41061;52.822;6.860;2023-11-19T13:45:06;50.53;;;6.35;;
55172;SDS011;41061;52.822;6.860;2023-11-19T13:47:36;39.20;;;5.30;;
55172;SDS011;41061;52.822;6.860;2023-11-19T13:50:01;39.30;;;5.63;;
55172;SDS011;41061;52.822;6.860;2023-11-19T13:52:31;38.15;;;5.55;;
55172;SDS011;41061;52.822;6.860;2023-11-19T13:54:56;42.85;;;6.47;;
55172;SDS011;41061;52.822;6.860;2023-11-19T13:57:22;36.58;;;5.35;;
55172;SDS011;41061;52.822;6.860;2023-11-19T13:59:48;36.58;;;4.80;;
55172;SDS011;41061;52.822;6.860;2023-11-19T14:02:14;42.72;;;5.22;;
55172;SDS011;41061;52.822;6.860;2023-11-19T14:04:40;34.58;;;4.95;;
55172;SDS011;41061;52.822;6.860;2023-11-19T14:07:06;31.67;;;5.50;;
55172;SDS011;41061;52.822;6.860;2023-11-19T14:09:32;36.25;;;6.32;;
55172;SDS011;41061;52.822;6.860;2023-11-19T14:11:58;35.35;;;4.95;;
55172;SDS011;41061;52.822;6.860;2023-11-19T14:14:23;44.95;;;6.93;;
55172;SDS011;41061;52.822;6.860;2023-11-19T14:16:49;35.40;;;5.38;;
55172;SDS011;41061;52.822;6.860;2023-11-19T14:19:15;42.92;;;7.80;;
55172;SDS011;41061;52.822;6.860;2023-11-19T14:21:41;32.05;;;7.35;;
55172;SDS011;41061;52.822;6.860;2023-11-19T14:24:06;34.50;;;5.78;;
55172;SDS011;41061;52.822;6.860;2023-11-19T14:26:32;39.28;;;6.00;;
55172;SDS011;41061;52.822;6.860;2023-11-19T14:28:58;32.08;;;4.72;;
55172;SDS011;41061;52.822;6.860;2023-11-19T14:31:23;36.05;;;5.53;;
55172;SDS011;41061;52.822;6.860;2023-11-19T14:33:53;39.67;;;5.85;;
55172;SDS011;41061;52.822;6.860;2023-11-19T14:36:19;39.42;;;5.50;;
55172;SDS011;41061;52.822;6.860;2023-11-19T14:38:44;33.05;;;6.30;;
55172;SDS011;41061;52.822;6.860;2023-11-19T14:41:10;44.67;;;5.22;;
55172;SDS011;41061;52.822;6.860;2023-11-19T14:43:36;36.72;;;6.13;;
55172;SDS011;41061;52.822;6.860;2023-11-19T14:46:01;45.55;;;5.57;;
55172;SDS011;41061;52.822;6.860;2023-11-19T14:48:28;34.80;;;5.55;;
55172;SDS011;41061;52.822;6.860;2023-11-19T14:50:54;43.85;;;6.03;;
55172;SDS011;41061;52.822;6.860;2023-11-19T14:53:19;38.65;;;5.22;;
55172;SDS011;41061;52.822;6.860;2023-11-19T14:55:45;38.13;;;7.18;;
55172;SDS011;41061;52.822;6.860;2023-11-19T14:58:11;35.63;;;4.88;;
55172;SDS011;41061;52.822;6.860;2023-11-19T15:00:38;45.58;;;5.43;;